Niamey, Niger
Current Conditions -  °F | °C
As of 8:00 PM on Wednesday 17 Dec 2014 (Local Time) from DRRN Reporting Station
Sand / Dust Storm Sand / Dust Storm  
Wind Chill: 84°   Ceiling: Unl
Heat Index: 84°   Visibility: 3mi
Dew Point: 32°   Wind: 2mph
Humidity: 15%   Direction: 30°NNE
Pressure: 29.91"   Gusts: NA
Location:  13.52°N, 2.12°E
Report Text: DRRN 171900Z 03002KT 5000 DU NSC 29/00 Q1013 NOSIG
Loading
Personal Weather Stations






























Interactive Weather Map New forecast layout! Learn more

10-Day Weather Forecast

Advertisements
Track Severe Weather on mobile